Terminal Aerodrome Forecast
Issued by NWS Detroit/Pontiac, MI

Home | Current Version | Previous Version | Text Only | Print | Product List | Glossary On
Versions: 1 2 3 4 5 6 7 8 9 10 11 12 13 14 15 16
000
FTUS43 KDTX 290811 AAA
TAFFNT
TAF AMD
KFNT 290811Z 2908/3006 16008KT P6SM SCT030 OVC050
      TEMPO 2909/2910 4SM -SN BKN028 OVC040
     FM291200 19011G19KT P6SM SCT060 BKN100
     FM292000 20012G22KT P6SM BKN028 OVC040
     FM300000 22014KT P6SM OVC018=

USA.gov is the U.S. government's official web portal to all federal, state and local government web resources and services.